sensor_id;sensor_type;location;lat;lon;timestamp;temperature;humidity
16136;DHT22;8173;48.354;9.248;2023-04-01T00:02:22;5.50;99.90
16136;DHT22;8173;48.354;9.248;2023-04-01T00:04:49;5.50;99.90
16136;DHT22;8173;48.354;9.248;2023-04-01T00:07:16;5.50;99.90
16136;DHT22;8173;48.354;9.248;2023-04-01T00:09:42;5.50;99.90
16136;DHT22;8173;48.354;9.248;2023-04-01T00:12:09;5.40;99.90
16136;DHT22;8173;48.354;9.248;2023-04-01T00:14:36;5.50;99.90
16136;DHT22;8173;48.354;9.248;2023-04-01T00:17:04;5.50;99.90
16136;DHT22;8173;48.354;9.248;2023-04-01T00:19:31;5.50;99.90
16136;DHT22;8173;48.354;9.248;2023-04-01T00:21:58;5.50;99.90
16136;DHT22;8173;48.354;9.248;2023-04-01T00:24:25;5.50;99.90
16136;DHT22;8173;48.354;9.248;2023-04-01T00:26:52;5.50;99.90
16136;DHT22;8173;48.354;9.248;2023-04-01T00:29:18;5.50;99.90
16136;DHT22;8173;48.354;9.248;2023-04-01T00:31:45;5.50;99.90
16136;DHT22;8173;48.354;9.248;2023-04-01T00:34:13;5.50;99.90
16136;DHT22;8173;48.354;9.248;2023-04-01T00:36:40;5.50;99.90
16136;DHT22;8173;48.354;9.248;2023-04-01T00:39:07;5.50;99.90
16136;DHT22;8173;48.354;9.248;2023-04-01T00:41:34;5.50;99.90
16136;DHT22;8173;48.354;9.248;2023-04-01T00:44:18;5.60;99.90
16136;DHT22;8173;48.354;9.248;2023-04-01T00:46:45;5.60;99.90
16136;DHT22;8173;48.354;9.248;2023-04-01T00:49:14;5.50;99.90
16136;DHT22;8173;48.354;9.248;2023-04-01T00:51:44;5.50;99.90
16136;DHT22;8173;48.354;9.248;2023-04-01T00:54:12;5.50;99.90
16136;DHT22;8173;48.354;9.248;2023-04-01T00:56:43;5.50;99.90
16136;DHT22;8173;48.354;9.248;2023-04-01T00:59:17;5.50;99.90
16136;DHT22;8173;48.354;9.248;2023-04-01T01:01:45;5.50;99.90
16136;DHT22;8173;48.354;9.248;2023-04-01T01:04:23;5.50;99.90
16136;DHT22;8173;48.354;9.248;2023-04-01T01:06:55;5.40;99.90
16136;DHT22;8173;48.354;9.248;2023-04-01T01:09:29;5.40;99.90
16136;DHT22;8173;48.354;9.248;2023-04-01T01:12:03;5.40;99.90
16136;DHT22;8173;48.354;9.248;2023-04-01T01:14:40;5.40;99.90
16136;DHT22;8173;48.354;9.248;2023-04-01T01:17:15;5.40;99.90
16136;DHT22;8173;48.354;9.248;2023-04-01T01:22:55;5.40;99.90
16136;DHT22;8173;48.354;9.248;2023-04-01T01:25:34;5.40;99.90
16136;DHT22;8173;48.354;9.248;2023-04-01T01:28:16;5.30;99.90
16136;DHT22;8173;48.354;9.248;2023-04-01T01:30:51;5.30;99.90
16136;DHT22;8173;48.354;9.248;2023-04-01T01:33:44;5.30;99.90
16136;DHT22;8173;48.354;9.248;2023-04-01T01:36:17;5.30;99.90
16136;DHT22;8173;48.354;9.248;2023-04-01T01:38:47;5.30;99.90
16136;DHT22;8173;48.354;9.248;2023-04-01T01:41:16;5.20;99.90
16136;DHT22;8173;48.354;9.248;2023-04-01T01:43:46;5.20;99.90
16136;DHT22;8173;48.354;9.248;2023-04-01T01:46:17;5.20;99.90
16136;DHT22;8173;48.354;9.248;2023-04-01T01:48:47;5.20;99.90
16136;DHT22;8173;48.354;9.248;2023-04-01T01:51:17;5.20;99.90
16136;DHT22;8173;48.354;9.248;2023-04-01T01:53:44;5.20;99.90
16136;DHT22;8173;48.354;9.248;2023-04-01T01:56:11;5.20;99.90
16136;DHT22;8173;48.354;9.248;2023-04-01T01:58:43;5.20;99.90
16136;DHT22;8173;48.354;9.248;2023-04-01T02:01:14;5.20;99.90
16136;DHT22;8173;48.354;9.248;2023-04-01T02:03:43;5.10;99.90
16136;DHT22;8173;48.354;9.248;2023-04-01T02:06:15;5.10;99.90
16136;DHT22;8173;48.354;9.248;2023-04-01T02:08:45;5.00;99.90
16136;DHT22;8173;48.354;9.248;2023-04-01T02:11:16;4.90;99.90
16136;DHT22;8173;48.354;9.248;2023-04-01T02:13:49;4.90;99.90
16136;DHT22;8173;48.354;9.248;2023-04-01T02:16:21;4.90;99.90
16136;DHT22;8173;48.354;9.248;2023-04-01T02:18:51;4.90;99.90
16136;DHT22;8173;48.354;9.248;2023-04-01T02:21:21;4.90;99.90
16136;DHT22;8173;48.354;9.248;2023-04-01T02:23:51;4.80;99.90
16136;DHT22;8173;48.354;9.248;2023-04-01T02:26:20;4.80;99.90
16136;DHT22;8173;48.354;9.248;2023-04-01T02:28:48;4.80;99.90
16136;DHT22;8173;48.354;9.248;2023-04-01T02:31:16;4.80;99.90
16136;DHT22;8173;48.354;9.248;2023-04-01T02:33:43;4.80;99.90
16136;DHT22;8173;48.354;9.248;2023-04-01T02:36:12;4.80;99.90
16136;DHT22;8173;48.354;9.248;2023-04-01T02:38:40;4.80;99.90
16136;DHT22;8173;48.354;9.248;2023-04-01T02:41:10;4.80;99.90
16136;DHT22;8173;48.354;9.248;2023-04-01T02:43:37;4.80;99.90
16136;DHT22;8173;48.354;9.248;2023-04-01T02:46:04;4.70;99.90
16136;DHT22;8173;48.354;9.248;2023-04-01T02:48:31;4.70;99.90
16136;DHT22;8173;48.354;9.248;2023-04-01T02:50:58;4.70;99.90
16136;DHT22;8173;48.354;9.248;2023-04-01T02:53:24;4.60;99.90
16136;DHT22;8173;48.354;9.248;2023-04-01T02:55:51;4.50;99.90
16136;DHT22;8173;48.354;9.248;2023-04-01T02:58:19;4.50;99.90
16136;DHT22;8173;48.354;9.248;2023-04-01T03:00:46;4.40;99.90
16136;DHT22;8173;48.354;9.248;2023-04-01T03:03:13;4.40;99.90
16136;DHT22;8173;48.354;9.248;2023-04-01T03:05:40;4.40;99.90
16136;DHT22;8173;48.354;9.248;2023-04-01T03:08:07;4.40;99.90
16136;DHT22;8173;48.354;9.248;2023-04-01T03:10:33;4.40;99.90
16136;DHT22;8173;48.354;9.248;2023-04-01T03:13:00;4.30;99.90
16136;DHT22;8173;48.354;9.248;2023-04-01T03:15:28;4.30;99.90
16136;DHT22;8173;48.354;9.248;2023-04-01T03:17:55;4.30;99.90
16136;DHT22;8173;48.354;9.248;2023-04-01T03:20:22;4.40;99.90
16136;DHT22;8173;48.354;9.248;2023-04-01T03:22:49;4.40;99.90
16136;DHT22;8173;48.354;9.248;2023-04-01T03:25:16;4.40;99.90
16136;DHT22;8173;48.354;9.248;2023-04-01T03:27:42;4.40;99.90
16136;DHT22;8173;48.354;9.248;2023-04-01T03:30:09;4.30;99.90
16136;DHT22;8173;48.354;9.248;2023-04-01T03:32:38;4.30;99.90
16136;DHT22;8173;48.354;9.248;2023-04-01T03:35:05;4.30;99.90
16136;DHT22;8173;48.354;9.248;2023-04-01T03:37:32;4.30;99.90
16136;DHT22;8173;48.354;9.248;2023-04-01T03:39:59;4.20;99.90
16136;DHT22;8173;48.354;9.248;2023-04-01T03:42:26;4.10;99.90
16136;DHT22;8173;48.354;9.248;2023-04-01T03:44:52;4.00;99.90
16136;DHT22;8173;48.354;9.248;2023-04-01T03:47:19;3.90;99.90
16136;DHT22;8173;48.354;9.248;2023-04-01T03:49:47;3.80;99.90
16136;DHT22;8173;48.354;9.248;2023-04-01T03:52:14;3.80;99.90
16136;DHT22;8173;48.354;9.248;2023-04-01T03:54:41;3.70;99.90
16136;DHT22;8173;48.354;9.248;2023-04-01T03:57:07;3.70;99.90
16136;DHT22;8173;48.354;9.248;2023-04-01T03:59:34;3.70;99.90
16136;DHT22;8173;48.354;9.248;2023-04-01T04:02:01;3.70;99.90
16136;DHT22;8173;48.354;9.248;2023-04-01T04:04:28;3.70;99.90
16136;DHT22;8173;48.354;9.248;2023-04-01T04:06:56;3.70;99.90
16136;DHT22;8173;48.354;9.248;2023-04-01T04:09:23;3.70;99.90
16136;DHT22;8173;48.354;9.248;2023-04-01T04:11:50;3.80;99.90
16136;DHT22;8173;48.354;9.248;2023-04-01T04:14:17;3.80;99.90
16136;DHT22;8173;48.354;9.248;2023-04-01T04:16:44;3.90;99.90
16136;DHT22;8173;48.354;9.248;2023-04-01T04:19:10;4.00;99.90
16136;DHT22;8173;48.354;9.248;2023-04-01T04:21:37;4.10;99.90
16136;DHT22;8173;48.354;9.248;2023-04-01T04:24:06;4.10;99.90
16136;DHT22;8173;48.354;9.248;2023-04-01T04:26:32;4.20;99.90
16136;DHT22;8173;48.354;9.248;2023-04-01T04:29:00;4.30;99.90
16136;DHT22;8173;48.354;9.248;2023-04-01T04:31:27;4.30;99.90
16136;DHT22;8173;48.354;9.248;2023-04-01T04:33:54;4.30;99.90
16136;DHT22;8173;48.354;9.248;2023-04-01T04:36:21;4.30;99.90
16136;DHT22;8173;48.354;9.248;2023-04-01T04:38:48;4.30;99.90
16136;DHT22;8173;48.354;9.248;2023-04-01T04:41:17;4.30;99.90
16136;DHT22;8173;48.354;9.248;2023-04-01T04:43:49;4.30;99.90
16136;DHT22;8173;48.354;9.248;2023-04-01T04:46:16;4.20;99.90
16136;DHT22;8173;48.354;9.248;2023-04-01T04:48:44;4.30;99.90
16136;DHT22;8173;48.354;9.248;2023-04-01T04:51:13;4.30;99.90
16136;DHT22;8173;48.354;9.248;2023-04-01T04:53:41;4.30;99.90
16136;DHT22;8173;48.354;9.248;2023-04-01T04:56:07;4.30;99.90
16136;DHT22;8173;48.354;9.248;2023-04-01T04:58:35;4.30;99.90
16136;DHT22;8173;48.354;9.248;2023-04-01T05:01:06;4.30;99.90
16136;DHT22;8173;48.354;9.248;2023-04-01T05:03:33;4.30;99.90
16136;DHT22;8173;48.354;9.248;2023-04-01T05:06:00;4.40;99.90
16136;DHT22;8173;48.354;9.248;2023-04-01T05:08:27;4.90;99.90
16136;DHT22;8173;48.354;9.248;2023-04-01T05:10:53;4.40;99.90
16136;DHT22;8173;48.354;9.248;2023-04-01T05:13:20;4.40;99.90
16136;DHT22;8173;48.354;9.248;2023-04-01T05:15:48;4.30;99.90
16136;DHT22;8173;48.354;9.248;2023-04-01T05:18:15;4.40;99.90
16136;DHT22;8173;48.354;9.248;2023-04-01T05:20:46;4.40;99.90
16136;DHT22;8173;48.354;9.248;2023-04-01T05:23:13;4.40;99.90
16136;DHT22;8173;48.354;9.248;2023-04-01T05:25:40;4.50;99.90
16136;DHT22;8173;48.354;9.248;2023-04-01T05:28:07;4.50;99.90
16136;DHT22;8173;48.354;9.248;2023-04-01T05:30:33;4.50;99.90
16136;DHT22;8173;48.354;9.248;2023-04-01T05:33:02;4.50;99.90
16136;DHT22;8173;48.354;9.248;2023-04-01T05:35:29;4.60;99.90
16136;DHT22;8173;48.354;9.248;2023-04-01T05:37:55;4.70;99.90
16136;DHT22;8173;48.354;9.248;2023-04-01T05:40:22;4.70;99.90
16136;DHT22;8173;48.354;9.248;2023-04-01T05:42:49;4.80;99.90
16136;DHT22;8173;48.354;9.248;2023-04-01T05:45:16;4.80;99.90
16136;DHT22;8173;48.354;9.248;2023-04-01T05:47:42;4.90;99.90
16136;DHT22;8173;48.354;9.248;2023-04-01T05:50:11;5.00;99.90
16136;DHT22;8173;48.354;9.248;2023-04-01T05:52:38;5.00;99.90
16136;DHT22;8173;48.354;9.248;2023-04-01T05:55:05;5.10;99.90
16136;DHT22;8173;48.354;9.248;2023-04-01T05:57:32;5.20;99.90
16136;DHT22;8173;48.354;9.248;2023-04-01T05:59:59;5.30;99.90
16136;DHT22;8173;48.354;9.248;2023-04-01T06:02:26;5.50;99.90
16136;DHT22;8173;48.354;9.248;2023-04-01T06:05:01;5.70;99.90
16136;DHT22;8173;48.354;9.248;2023-04-01T06:07:31;5.80;99.90
16136;DHT22;8173;48.354;9.248;2023-04-01T06:09:57;5.80;99.90
16136;DHT22;8173;48.354;9.248;2023-04-01T06:12:52;6.10;99.90
16136;DHT22;8173;48.354;9.248;2023-04-01T06:15:30;6.20;99.90
16136;DHT22;8173;48.354;9.248;2023-04-01T06:21:02;6.10;99.90
16136;DHT22;8173;48.354;9.248;2023-04-01T06:23:41;6.30;99.90
16136;DHT22;8173;48.354;9.248;2023-04-01T06:26:22;6.20;99.90
16136;DHT22;8173;48.354;9.248;2023-04-01T06:29:08;6.10;99.90
16136;DHT22;8173;48.354;9.248;2023-04-01T06:31:54;6.10;99.90
16136;DHT22;8173;48.354;9.248;2023-04-01T06:34:36;6.00;99.90
16136;DHT22;8173;48.354;9.248;2023-04-01T06:37:36;6.00;99.90
16136;DHT22;8173;48.354;9.248;2023-04-01T06:40:17;6.00;99.90
16136;DHT22;8173;48.354;9.248;2023-04-01T06:42:55;6.00;99.90
16136;DHT22;8173;48.354;9.248;2023-04-01T06:45:32;5.80;99.90
16136;DHT22;8173;48.354;9.248;2023-04-01T06:48:14;5.80;99.90
16136;DHT22;8173;48.354;9.248;2023-04-01T06:50:49;5.80;99.90
16136;DHT22;8173;48.354;9.248;2023-04-01T06:53:23;5.80;99.90
16136;DHT22;8173;48.354;9.248;2023-04-01T06:55:55;5.90;99.90
16136;DHT22;8173;48.354;9.248;2023-04-01T06:58:26;6.00;99.90
16136;DHT22;8173;48.354;9.248;2023-04-01T07:00:56;6.00;99.90
16136;DHT22;8173;48.354;9.248;2023-04-01T07:03:30;6.00;99.90
16136;DHT22;8173;48.354;9.248;2023-04-01T07:06:02;6.10;99.90
16136;DHT22;8173;48.354;9.248;2023-04-01T07:08:31;6.00;99.90
16136;DHT22;8173;48.354;9.248;2023-04-01T07:11:03;6.10;99.90
16136;DHT22;8173;48.354;9.248;2023-04-01T07:13:34;6.10;99.90
16136;DHT22;8173;48.354;9.248;2023-04-01T07:16:09;6.20;99.90
16136;DHT22;8173;48.354;9.248;2023-04-01T07:18:41;6.20;99.90
16136;DHT22;8173;48.354;9.248;2023-04-01T07:21:19;6.30;99.90
16136;DHT22;8173;48.354;9.248;2023-04-01T07:23:47;6.50;99.90
16136;DHT22;8173;48.354;9.248;2023-04-01T07:26:19;6.40;99.90
16136;DHT22;8173;48.354;9.248;2023-04-01T07:28:47;6.40;99.90
16136;DHT22;8173;48.354;9.248;2023-04-01T07:31:20;6.40;99.90
16136;DHT22;8173;48.354;9.248;2023-04-01T07:33:55;6.50;99.90
16136;DHT22;8173;48.354;9.248;2023-04-01T07:36:32;6.50;99.90
16136;DHT22;8173;48.354;9.248;2023-04-01T07:39:10;6.50;99.90
16136;DHT22;8173;48.354;9.248;2023-04-01T07:41:49;6.60;99.90
16136;DHT22;8173;48.354;9.248;2023-04-01T07:44:23;6.60;99.90
16136;DHT22;8173;48.354;9.248;2023-04-01T07:47:02;6.60;99.90
16136;DHT22;8173;48.354;9.248;2023-04-01T07:49:42;6.50;99.90
16136;DHT22;8173;48.354;9.248;2023-04-01T07:52:14;6.60;99.90
16136;DHT22;8173;48.354;9.248;2023-04-01T07:54:49;6.70;99.90
16136;DHT22;8173;48.354;9.248;2023-04-01T07:57:21;6.70;99.90
16136;DHT22;8173;48.354;9.248;2023-04-01T07:59:57;6.70;99.90
16136;DHT22;8173;48.354;9.248;2023-04-01T08:02:35;6.50;99.90
16136;DHT22;8173;48.354;9.248;2023-04-01T08:05:12;6.50;99.90
16136;DHT22;8173;48.354;9.248;2023-04-01T08:07:45;6.50;99.90
16136;DHT22;8173;48.354;9.248;2023-04-01T08:10:19;6.40;99.90
16136;DHT22;8173;48.354;9.248;2023-04-01T08:12:58;6.30;99.90
16136;DHT22;8173;48.354;9.248;2023-04-01T08:15:31;6.40;99.90
16136;DHT22;8173;48.354;9.248;2023-04-01T08:18:06;6.40;99.90
16136;DHT22;8173;48.354;9.248;2023-04-01T08:20:40;6.30;99.90
16136;DHT22;8173;48.354;9.248;2023-04-01T08:23:12;6.30;99.90
16136;DHT22;8173;48.354;9.248;2023-04-01T08:25:44;6.20;99.90
16136;DHT22;8173;48.354;9.248;2023-04-01T08:28:17;6.20;99.90
16136;DHT22;8173;48.354;9.248;2023-04-01T08:30:49;6.10;99.90
16136;DHT22;8173;48.354;9.248;2023-04-01T08:33:21;6.10;99.90
16136;DHT22;8173;48.354;9.248;2023-04-01T08:35:53;6.20;99.90
16136;DHT22;8173;48.354;9.248;2023-04-01T08:38:25;6.20;99.90
16136;DHT22;8173;48.354;9.248;2023-04-01T08:41:01;6.10;99.90
16136;DHT22;8173;48.354;9.248;2023-04-01T08:49:48;6.20;99.90
16136;DHT22;8173;48.354;9.248;2023-04-01T08:52:36;6.20;99.90
16136;DHT22;8173;48.354;9.248;2023-04-01T08:55:31;6.30;99.90
16136;DHT22;8173;48.354;9.248;2023-04-01T09:01:14;6.30;99.90
16136;DHT22;8173;48.354;9.248;2023-04-01T09:04:02;6.30;99.90
16136;DHT22;8173;48.354;9.248;2023-04-01T09:06:39;6.30;99.90
16136;DHT22;8173;48.354;9.248;2023-04-01T09:09:36;6.20;99.90
16136;DHT22;8173;48.354;9.248;2023-04-01T09:12:24;6.20;99.90
16136;DHT22;8173;48.354;9.248;2023-04-01T09:21:19;6.20;99.90
16136;DHT22;8173;48.354;9.248;2023-04-01T09:24:00;6.30;99.90
16136;DHT22;8173;48.354;9.248;2023-04-01T09:26:51;6.40;99.90
16136;DHT22;8173;48.354;9.248;2023-04-01T09:32:28;6.70;99.90
16136;DHT22;8173;48.354;9.248;2023-04-01T09:35:14;6.80;99.90
16136;DHT22;8173;48.354;9.248;2023-04-01T09:37:53;6.70;99.90
16136;DHT22;8173;48.354;9.248;2023-04-01T09:40:34;6.70;99.90
16136;DHT22;8173;48.354;9.248;2023-04-01T09:43:20;6.80;99.90
16136;DHT22;8173;48.354;9.248;2023-04-01T09:46:16;6.90;99.90
16136;DHT22;8173;48.354;9.248;2023-04-01T09:49:17;7.10;99.90
16136;DHT22;8173;48.354;9.248;2023-04-01T09:51:55;7.20;99.90
16136;DHT22;8173;48.354;9.248;2023-04-01T09:54:36;7.10;99.90
16136;DHT22;8173;48.354;9.248;2023-04-01T09:57:35;6.90;99.90
16136;DHT22;8173;48.354;9.248;2023-04-01T10:00:24;6.80;99.90
16136;DHT22;8173;48.354;9.248;2023-04-01T10:12:23;7.20;99.90
16136;DHT22;8173;48.354;9.248;2023-04-01T10:21:28;6.90;99.90
16136;DHT22;8173;48.354;9.248;2023-04-01T10:24:15;6.80;99.90
16136;DHT22;8173;48.354;9.248;2023-04-01T10:27:02;6.90;99.90
16136;DHT22;8173;48.354;9.248;2023-04-01T10:33:16;6.80;99.90
16136;DHT22;8173;48.354;9.248;2023-04-01T10:36:15;6.50;99.90
16136;DHT22;8173;48.354;9.248;2023-04-01T10:45:31;6.40;99.90
16136;DHT22;8173;48.354;9.248;2023-04-01T10:48:30;6.30;99.90
16136;DHT22;8173;48.354;9.248;2023-04-01T10:51:23;6.30;99.90
16136;DHT22;8173;48.354;9.248;2023-04-01T10:54:30;6.40;99.90
16136;DHT22;8173;48.354;9.248;2023-04-01T10:57:14;6.40;99.90
16136;DHT22;8173;48.354;9.248;2023-04-01T11:00:42;6.50;99.90
16136;DHT22;8173;48.354;9.248;2023-04-01T11:06:59;6.90;99.90
16136;DHT22;8173;48.354;9.248;2023-04-01T11:10:02;7.00;99.90
16136;DHT22;8173;48.354;9.248;2023-04-01T11:13:02;6.90;99.90
16136;DHT22;8173;48.354;9.248;2023-04-01T11:15:57;6.90;99.90
16136;DHT22;8173;48.354;9.248;2023-04-01T11:18:57;7.10;99.90
16136;DHT22;8173;48.354;9.248;2023-04-01T11:21:54;7.10;99.90
16136;DHT22;8173;48.354;9.248;2023-04-01T11:24:33;6.90;99.90
16136;DHT22;8173;48.354;9.248;2023-04-01T11:27:15;6.70;99.90
16136;DHT22;8173;48.354;9.248;2023-04-01T11:30:12;6.60;99.90
16136;DHT22;8173;48.354;9.248;2023-04-01T11:32:50;6.60;99.90
16136;DHT22;8173;48.354;9.248;2023-04-01T11:35:29;6.60;99.90
16136;DHT22;8173;48.354;9.248;2023-04-01T11:38:02;6.70;99.90
16136;DHT22;8173;48.354;9.248;2023-04-01T11:40:37;6.80;99.90
16136;DHT22;8173;48.354;9.248;2023-04-01T11:43:11;6.90;99.90
16136;DHT22;8173;48.354;9.248;2023-04-01T11:45:46;6.80;99.90
16136;DHT22;8173;48.354;9.248;2023-04-01T11:48:36;6.70;99.90
16136;DHT22;8173;48.354;9.248;2023-04-01T11:51:31;6.30;99.90
16136;DHT22;8173;48.354;9.248;2023-04-01T11:54:10;6.30;99.90
16136;DHT22;8173;48.354;9.248;2023-04-01T11:56:53;6.30;99.90
16136;DHT22;8173;48.354;9.248;2023-04-01T12:02:29;6.20;99.90
16136;DHT22;8173;48.354;9.248;2023-04-01T12:05:28;6.20;99.90
16136;DHT22;8173;48.354;9.248;2023-04-01T12:08:10;6.30;99.90
16136;DHT22;8173;48.354;9.248;2023-04-01T12:10:40;6.40;99.90
16136;DHT22;8173;48.354;9.248;2023-04-01T12:13:23;6.40;99.90
16136;DHT22;8173;48.354;9.248;2023-04-01T12:16:04;6.50;99.90
16136;DHT22;8173;48.354;9.248;2023-04-01T12:18:38;6.60;99.90
16136;DHT22;8173;48.354;9.248;2023-04-01T12:21:14;6.80;99.90
16136;DHT22;8173;48.354;9.248;2023-04-01T12:23:56;6.80;99.90
16136;DHT22;8173;48.354;9.248;2023-04-01T12:26:42;7.00;99.90
16136;DHT22;8173;48.354;9.248;2023-04-01T12:29:37;7.10;99.90
16136;DHT22;8173;48.354;9.248;2023-04-01T12:32:15;7.00;99.90
16136;DHT22;8173;48.354;9.248;2023-04-01T12:35:10;6.90;99.90
16136;DHT22;8173;48.354;9.248;2023-04-01T12:37:47;6.90;99.90
16136;DHT22;8173;48.354;9.248;2023-04-01T12:40:43;6.90;99.90
16136;DHT22;8173;48.354;9.248;2023-04-01T12:43:29;7.00;99.90
16136;DHT22;8173;48.354;9.248;2023-04-01T12:46:05;7.00;99.90
16136;DHT22;8173;48.354;9.248;2023-04-01T12:52:03;7.00;99.90
16136;DHT22;8173;48.354;9.248;2023-04-01T12:54:48;7.10;99.90
16136;DHT22;8173;48.354;9.248;2023-04-01T12:57:37;7.20;99.90
16136;DHT22;8173;48.354;9.248;2023-04-01T13:00:18;7.30;99.90
16136;DHT22;8173;48.354;9.248;2023-04-01T13:03:00;7.00;99.90
16136;DHT22;8173;48.354;9.248;2023-04-01T13:05:55;7.00;99.90
16136;DHT22;8173;48.354;9.248;2023-04-01T13:08:36;6.90;99.90
16136;DHT22;8173;48.354;9.248;2023-04-01T13:11:10;7.10;99.90
16136;DHT22;8173;48.354;9.248;2023-04-01T13:14:15;7.60;99.90
16136;DHT22;8173;48.354;9.248;2023-04-01T13:16:48;7.60;99.90
16136;DHT22;8173;48.354;9.248;2023-04-01T13:19:23;7.70;99.90
16136;DHT22;8173;48.354;9.248;2023-04-01T13:21:57;9.30;99.90
16136;DHT22;8173;48.354;9.248;2023-04-01T13:24:35;8.10;99.90
16136;DHT22;8173;48.354;9.248;2023-04-01T13:27:09;8.30;99.90
16136;DHT22;8173;48.354;9.248;2023-04-01T13:29:43;7.90;99.90
16136;DHT22;8173;48.354;9.248;2023-04-01T13:32:23;7.90;99.90
16136;DHT22;8173;48.354;9.248;2023-04-01T13:35:03;7.90;99.90
16136;DHT22;8173;48.354;9.248;2023-04-01T13:37:42;8.10;99.90
16136;DHT22;8173;48.354;9.248;2023-04-01T13:40:26;8.20;99.90
16136;DHT22;8173;48.354;9.248;2023-04-01T13:42:57;8.40;99.90
16136;DHT22;8173;48.354;9.248;2023-04-01T13:45:33;8.40;99.90
16136;DHT22;8173;48.354;9.248;2023-04-01T13:51:18;8.10;99.90
16136;DHT22;8173;48.354;9.248;2023-04-01T13:54:00;8.00;99.90
16136;DHT22;8173;48.354;9.248;2023-04-01T13:56:34;8.00;99.90
16136;DHT22;8173;48.354;9.248;2023-04-01T14:02:44;8.00;99.90
16136;DHT22;8173;48.354;9.248;2023-04-01T14:05:28;8.00;99.90
16136;DHT22;8173;48.354;9.248;2023-04-01T14:08:05;8.00;99.90
16136;DHT22;8173;48.354;9.248;2023-04-01T14:10:39;8.00;99.90
16136;DHT22;8173;48.354;9.248;2023-04-01T14:13:14;7.90;99.90
16136;DHT22;8173;48.354;9.248;2023-04-01T14:15:58;7.80;99.90
16136;DHT22;8173;48.354;9.248;2023-04-01T14:19:01;7.80;99.90
16136;DHT22;8173;48.354;9.248;2023-04-01T14:21:35;7.90;99.90
16136;DHT22;8173;48.354;9.248;2023-04-01T14:24:18;8.10;99.90
16136;DHT22;8173;48.354;9.248;2023-04-01T14:27:12;8.00;99.90
16136;DHT22;8173;48.354;9.248;2023-04-01T14:29:51;8.10;99.90
16136;DHT22;8173;48.354;9.248;2023-04-01T14:32:33;8.10;99.90
16136;DHT22;8173;48.354;9.248;2023-04-01T14:35:22;8.10;99.90
16136;DHT22;8173;48.354;9.248;2023-04-01T14:38:04;8.20;99.90
16136;DHT22;8173;48.354;9.248;2023-04-01T14:40:48;8.10;99.90
16136;DHT22;8173;48.354;9.248;2023-04-01T14:46:34;8.00;99.90
16136;DHT22;8173;48.354;9.248;2023-04-01T14:49:15;7.90;99.90
16136;DHT22;8173;48.354;9.248;2023-04-01T14:51:46;7.90;99.90
16136;DHT22;8173;48.354;9.248;2023-04-01T14:54:14;8.00;99.90
16136;DHT22;8173;48.354;9.248;2023-04-01T14:56:49;8.10;99.90
16136;DHT22;8173;48.354;9.248;2023-04-01T14:59:27;8.00;99.90
16136;DHT22;8173;48.354;9.248;2023-04-01T15:01:58;8.00;99.90
16136;DHT22;8173;48.354;9.248;2023-04-01T15:04:50;7.90;99.90
16136;DHT22;8173;48.354;9.248;2023-04-01T15:10:39;7.80;99.90
16136;DHT22;8173;48.354;9.248;2023-04-01T15:13:13;7.70;99.90
16136;DHT22;8173;48.354;9.248;2023-04-01T15:15:53;7.60;99.90
16136;DHT22;8173;48.354;9.248;2023-04-01T15:18:30;7.70;99.90
16136;DHT22;8173;48.354;9.248;2023-04-01T15:21:22;7.80;99.90
16136;DHT22;8173;48.354;9.248;2023-04-01T15:23:57;7.80;99.90
16136;DHT22;8173;48.354;9.248;2023-04-01T15:26:37;7.70;99.90
16136;DHT22;8173;48.354;9.248;2023-04-01T15:29:27;7.80;99.90
16136;DHT22;8173;48.354;9.248;2023-04-01T15:32:01;7.70;99.90
16136;DHT22;8173;48.354;9.248;2023-04-01T15:34:34;7.70;99.90
16136;DHT22;8173;48.354;9.248;2023-04-01T15:37:11;7.50;99.90
16136;DHT22;8173;48.354;9.248;2023-04-01T15:39:50;7.50;99.90
16136;DHT22;8173;48.354;9.248;2023-04-01T15:42:28;7.50;99.90
16136;DHT22;8173;48.354;9.248;2023-04-01T15:45:11;7.60;99.90
16136;DHT22;8173;48.354;9.248;2023-04-01T15:47:42;7.50;99.90
16136;DHT22;8173;48.354;9.248;2023-04-01T15:50:45;7.50;99.90
16136;DHT22;8173;48.354;9.248;2023-04-01T15:53:22;7.50;99.90
16136;DHT22;8173;48.354;9.248;2023-04-01T15:55:56;7.40;99.90
16136;DHT22;8173;48.354;9.248;2023-04-01T15:58:38;7.50;99.90
16136;DHT22;8173;48.354;9.248;2023-04-01T16:01:16;7.40;99.90
16136;DHT22;8173;48.354;9.248;2023-04-01T16:03:52;7.50;99.90
16136;DHT22;8173;48.354;9.248;2023-04-01T16:06:38;7.50;99.90
16136;DHT22;8173;48.354;9.248;2023-04-01T16:09:40;7.50;99.90
16136;DHT22;8173;48.354;9.248;2023-04-01T16:12:16;7.50;99.90
16136;DHT22;8173;48.354;9.248;2023-04-01T16:14:55;7.50;99.90
16136;DHT22;8173;48.354;9.248;2023-04-01T16:17:46;7.50;99.90
16136;DHT22;8173;48.354;9.248;2023-04-01T16:20:20;7.50;99.90
16136;DHT22;8173;48.354;9.248;2023-04-01T16:22:53;7.50;99.90
16136;DHT22;8173;48.354;9.248;2023-04-01T16:25:31;7.50;99.90
16136;DHT22;8173;48.354;9.248;2023-04-01T16:28:13;7.50;99.90
16136;DHT22;8173;48.354;9.248;2023-04-01T16:30:46;7.50;99.90
16136;DHT22;8173;48.354;9.248;2023-04-01T16:33:19;7.50;99.90
16136;DHT22;8173;48.354;9.248;2023-04-01T16:35:54;7.60;99.90
16136;DHT22;8173;48.354;9.248;2023-04-01T16:38:26;7.50;99.90
16136;DHT22;8173;48.354;9.248;2023-04-01T16:41:07;7.50;99.90
16136;DHT22;8173;48.354;9.248;2023-04-01T16:43:42;7.50;99.90
16136;DHT22;8173;48.354;9.248;2023-04-01T16:46:28;7.50;99.90
16136;DHT22;8173;48.354;9.248;2023-04-01T16:51:53;7.40;99.90
16136;DHT22;8173;48.354;9.248;2023-04-01T16:54:28;7.30;99.90
16136;DHT22;8173;48.354;9.248;2023-04-01T16:57:02;7.30;99.90
16136;DHT22;8173;48.354;9.248;2023-04-01T16:59:35;7.30;99.90
16136;DHT22;8173;48.354;9.248;2023-04-01T17:02:08;7.50;99.90
16136;DHT22;8173;48.354;9.248;2023-04-01T17:04:41;7.00;99.90
16136;DHT22;8173;48.354;9.248;2023-04-01T17:07:21;7.10;99.90
16136;DHT22;8173;48.354;9.248;2023-04-01T17:10:04;7.10;99.90
16136;DHT22;8173;48.354;9.248;2023-04-01T17:12:39;7.10;99.90
16136;DHT22;8173;48.354;9.248;2023-04-01T17:15:19;7.10;99.90
16136;DHT22;8173;48.354;9.248;2023-04-01T17:17:54;7.10;99.90
16136;DHT22;8173;48.354;9.248;2023-04-01T17:20:39;7.10;99.90
16136;DHT22;8173;48.354;9.248;2023-04-01T17:23:12;7.00;99.90
16136;DHT22;8173;48.354;9.248;2023-04-01T17:26:11;7.00;99.90
16136;DHT22;8173;48.354;9.248;2023-04-01T17:28:46;7.00;99.90
16136;DHT22;8173;48.354;9.248;2023-04-01T17:31:26;6.90;99.90
16136;DHT22;8173;48.354;9.248;2023-04-01T17:37:11;6.90;99.90
16136;DHT22;8173;48.354;9.248;2023-04-01T17:39:47;6.90;99.90
16136;DHT22;8173;48.354;9.248;2023-04-01T17:42:16;6.90;99.90
16136;DHT22;8173;48.354;9.248;2023-04-01T17:44:52;6.80;99.90
16136;DHT22;8173;48.354;9.248;2023-04-01T17:47:31;6.70;99.90
16136;DHT22;8173;48.354;9.248;2023-04-01T17:53:02;6.70;99.90
16136;DHT22;8173;48.354;9.248;2023-04-01T17:55:46;6.70;99.90
16136;DHT22;8173;48.354;9.248;2023-04-01T17:58:18;6.60;99.90
16136;DHT22;8173;48.354;9.248;2023-04-01T18:01:03;6.60;99.90
16136;DHT22;8173;48.354;9.248;2023-04-01T18:06:36;6.60;99.90
16136;DHT22;8173;48.354;9.248;2023-04-01T18:09:15;6.60;99.90
16136;DHT22;8173;48.354;9.248;2023-04-01T18:11:54;6.50;99.90
16136;DHT22;8173;48.354;9.248;2023-04-01T18:14:49;6.50;99.90
16136;DHT22;8173;48.354;9.248;2023-04-01T18:17:25;6.50;99.90
16136;DHT22;8173;48.354;9.248;2023-04-01T18:20:06;6.50;99.90
16136;DHT22;8173;48.354;9.248;2023-04-01T18:22:41;6.40;99.90
16136;DHT22;8173;48.354;9.248;2023-04-01T18:25:19;6.40;99.90